createdAt,value
2022-09-18T00:02:17.814Z,7.73
2022-09-18T00:04:43.981Z,8.83
2022-09-18T00:07:10.159Z,6.27
2022-09-18T00:09:36.736Z,10.50
2022-09-18T00:12:03.196Z,8.57
2022-09-18T00:14:30.470Z,3.50
2022-09-18T00:16:56.811Z,2.90
2022-09-18T00:19:22.982Z,9.60
2022-09-18T00:21:50.723Z,7.00
2022-09-18T00:24:18.162Z,6.60
2022-09-18T00:26:45.544Z,5.27
2022-09-18T00:29:13.307Z,4.33
2022-09-18T00:31:40.418Z,3.90
2022-09-18T00:34:10.784Z,5.67
2022-09-18T00:36:38.548Z,3.43
2022-09-18T00:39:06.986Z,5.87
2022-09-18T00:41:41.623Z,5.57
2022-09-18T00:44:30.148Z,3.53
2022-09-18T00:47:04.020Z,5.23
2022-09-18T00:49:31.161Z,4.07
2022-09-18T00:51:59.702Z,4.53
2022-09-18T00:54:41.882Z,4.33
2022-09-18T00:57:15.472Z,3.87
2022-09-18T00:59:44.638Z,3.67
2022-09-18T01:02:11.564Z,4.00
2022-09-18T01:04:38.063Z,3.73
2022-09-18T01:07:28.348Z,3.33
2022-09-18T01:10:20.464Z,3.23
2022-09-18T01:12:57.641Z,5.77
2022-09-18T01:15:48.132Z,2.73
2022-09-18T01:18:30.512Z,8.30
2022-09-18T01:21:12.348Z,9.30
2022-09-18T01:24:06.055Z,6.60
2022-09-18T01:27:07.783Z,6.80
2022-09-18T01:29:47.198Z,3.73
2022-09-18T01:32:18.623Z,2.23
2022-09-18T01:34:54.001Z,4.30
2022-09-18T01:37:39.186Z,3.77
2022-09-18T01:40:12.417Z,1.87
2022-09-18T01:42:43.214Z,3.13
2022-09-18T01:45:12.170Z,7.70
2022-09-18T01:47:46.930Z,4.73
2022-09-18T01:50:14.572Z,2.63
2022-09-18T01:52:50.794Z,3.97
2022-09-18T01:55:21.881Z,3.13
2022-09-18T01:58:00.796Z,5.10
2022-09-18T02:00:29.641Z,4.47
2022-09-18T02:03:11.151Z,4.43
2022-09-18T02:05:46.482Z,3.47
2022-09-18T02:08:22.579Z,3.43
2022-09-18T02:10:58.495Z,2.47
2022-09-18T02:13:31.083Z,1.73
2022-09-18T02:16:02.693Z,3.90
2022-09-18T02:18:34.734Z,4.40
2022-09-18T02:21:09.550Z,2.77
2022-09-18T02:23:40.299Z,2.20
2022-09-18T02:26:09.147Z,3.20
2022-09-18T02:28:38.108Z,3.50
2022-09-18T02:31:04.806Z,3.77
2022-09-18T02:33:34.104Z,2.17
2022-09-18T02:36:25.170Z,3.87
2022-09-18T02:39:14.184Z,2.63
2022-09-18T02:41:48.191Z,1.93
2022-09-18T02:44:27.313Z,2.43
2022-09-18T02:47:19.038Z,2.57
2022-09-18T02:49:54.263Z,2.60
2022-09-18T02:52:32.299Z,5.37
2022-09-18T02:55:09.363Z,3.33
2022-09-18T02:57:42.273Z,2.47
2022-09-18T03:00:16.173Z,3.17
2022-09-18T03:02:43.392Z,3.80
2022-09-18T03:05:10.979Z,5.23
2022-09-18T03:07:47.886Z,2.30
2022-09-18T03:10:14.904Z,4.00
2022-09-18T03:12:41.079Z,3.30
2022-09-18T03:15:08.129Z,2.67
2022-09-18T03:17:34.630Z,3.50
2022-09-18T03:20:02.126Z,2.97
2022-09-18T03:22:29.020Z,4.40
2022-09-18T03:24:55.183Z,7.40
2022-09-18T03:27:21.432Z,6.33
2022-09-18T03:29:48.122Z,4.20
2022-09-18T03:32:16.685Z,4.03
2022-09-18T03:34:49.031Z,2.70
2022-09-18T03:37:16.140Z,3.00
2022-09-18T03:39:43.502Z,3.37
2022-09-18T03:42:13.170Z,2.80
2022-09-18T03:44:39.617Z,3.03
2022-09-18T03:47:15.515Z,4.03
2022-09-18T03:49:41.614Z,4.03
2022-09-18T03:52:07.870Z,5.00
2022-09-18T03:54:41.536Z,3.13
2022-09-18T03:57:16.074Z,3.33
2022-09-18T04:00:01.220Z,3.17
2022-09-18T04:02:43.290Z,2.67
2022-09-18T04:05:35.885Z,4.03
2022-09-18T04:08:35.165Z,4.77
2022-09-18T04:11:25.946Z,4.17
2022-09-18T04:13:52.415Z,2.93
2022-09-18T04:16:18.562Z,3.20
2022-09-18T04:18:44.887Z,4.43
2022-09-18T04:21:11.097Z,4.23
2022-09-18T04:23:37.270Z,7.50
2022-09-18T04:26:08.594Z,5.70
2022-09-18T04:28:38.527Z,3.60
2022-09-18T04:31:06.222Z,7.77
2022-09-18T04:33:32.406Z,5.93
2022-09-18T04:35:58.787Z,5.40
2022-09-18T04:38:29.055Z,6.00
2022-09-18T04:40:56.909Z,3.63
2022-09-18T04:43:24.887Z,3.07
2022-09-18T04:45:51.242Z,3.30
2022-09-18T04:48:18.072Z,2.07
2022-09-18T04:50:46.308Z,3.47
2022-09-18T04:53:17.737Z,4.63
2022-09-18T04:55:46.503Z,2.67
2022-09-18T04:58:15.470Z,3.37
2022-09-18T05:00:44.390Z,3.90
2022-09-18T05:03:10.534Z,4.63
2022-09-18T05:05:38.775Z,3.70
2022-09-18T05:08:06.276Z,3.00
2022-09-18T05:10:32.719Z,3.43
2022-09-18T05:12:59.095Z,1.73
2022-09-18T05:15:27.552Z,4.60
2022-09-18T05:18:01.485Z,3.93
2022-09-18T05:20:30.164Z,4.77
2022-09-18T05:23:03.549Z,3.10
2022-09-18T05:25:30.377Z,4.40
2022-09-18T05:27:59.609Z,3.43
2022-09-18T05:30:31.310Z,3.20
2022-09-18T05:33:01.511Z,4.07
2022-09-18T05:35:31.735Z,3.97
2022-09-18T05:37:59.283Z,4.00
2022-09-18T05:40:31.044Z,3.43
2022-09-18T05:42:59.064Z,5.50
2022-09-18T05:45:25.863Z,6.43
2022-09-18T05:48:04.768Z,3.13
2022-09-18T05:50:34.316Z,5.03
2022-09-18T05:53:09.928Z,4.57
2022-09-18T05:55:44.028Z,4.20
2022-09-18T05:58:13.952Z,3.43
2022-09-18T06:00:41.131Z,3.37
2022-09-18T06:03:14.128Z,4.17
2022-09-18T06:05:41.522Z,4.17
2022-09-18T06:08:11.618Z,2.50
2022-09-18T06:10:39.663Z,5.30
2022-09-18T06:13:14.827Z,3.40
2022-09-18T06:15:45.757Z,3.87
2022-09-18T06:18:13.843Z,3.23
2022-09-18T06:20:41.729Z,4.07
2022-09-18T06:23:08.481Z,4.50
2022-09-18T06:25:44.402Z,4.40
2022-09-18T06:28:11.119Z,4.03
2022-09-18T06:30:37.939Z,4.27
2022-09-18T06:33:06.633Z,5.40
2022-09-18T06:35:35.602Z,3.53
2022-09-18T06:38:04.280Z,4.50
2022-09-18T06:40:38.224Z,3.67
2022-09-18T06:43:20.856Z,3.63
2022-09-18T06:46:16.163Z,6.07
2022-09-18T06:48:47.890Z,6.80
2022-09-18T06:51:14.228Z,8.80
2022-09-18T06:53:59.858Z,4.90
2022-09-18T06:56:26.266Z,3.67
2022-09-18T06:58:53.771Z,3.63
2022-09-18T07:01:20.512Z,5.20
2022-09-18T07:03:50.257Z,4.17
2022-09-18T07:06:21.896Z,3.43
2022-09-18T07:08:50.266Z,5.17
2022-09-18T07:11:32.948Z,4.23
2022-09-18T07:14:00.487Z,5.50
2022-09-18T07:16:27.224Z,4.60
2022-09-18T07:18:53.706Z,2.63
2022-09-18T07:21:20.417Z,5.47
2022-09-18T07:23:46.730Z,2.50
2022-09-18T07:26:13.525Z,2.90
2022-09-18T07:28:39.643Z,3.03
2022-09-18T07:31:15.484Z,2.37
2022-09-18T07:33:43.018Z,1.20
2022-09-18T07:36:14.906Z,1.47
2022-09-18T07:38:42.008Z,1.33
2022-09-18T07:41:08.249Z,1.33
2022-09-18T07:43:34.922Z,1.87
2022-09-18T07:46:02.082Z,2.73
2022-09-18T07:48:31.552Z,1.03
2022-09-18T07:51:08.732Z,1.20
2022-09-18T07:53:36.921Z,0.63
2022-09-18T07:56:11.406Z,0.87
2022-09-18T07:58:38.606Z,1.40
2022-09-18T08:01:10.547Z,1.20
2022-09-18T08:03:45.215Z,1.37
2022-09-18T08:06:12.060Z,1.60
2022-09-18T08:08:55.514Z,1.43
2022-09-18T08:11:35.104Z,1.60
2022-09-18T08:14:28.958Z,0.87
2022-09-18T08:17:18.687Z,1.30
2022-09-18T08:20:08.410Z,0.70
2022-09-18T08:22:43.092Z,1.60
2022-09-18T08:25:11.193Z,0.83
2022-09-18T08:27:39.820Z,1.33
2022-09-18T08:30:08.675Z,1.10
2022-09-18T08:32:36.354Z,2.30
2022-09-18T08:35:03.826Z,1.07
2022-09-18T08:37:33.087Z,0.70
2022-09-18T08:40:53.644Z,1.70
2022-09-18T08:43:48.086Z,1.13
2022-09-18T08:46:38.056Z,0.80
2022-09-18T08:49:29.382Z,0.87
2022-09-18T08:52:06.416Z,2.87
2022-09-18T08:54:48.734Z,0.70
2022-09-18T08:57:42.989Z,0.63
2022-09-18T09:00:21.814Z,1.37
2022-09-18T09:03:16.007Z,0.47
2022-09-18T09:05:51.696Z,3.80
2022-09-18T09:08:21.876Z,1.73
2022-09-18T09:11:17.084Z,0.93
2022-09-18T09:13:45.154Z,0.40
2022-09-18T09:16:32.215Z,0.50
2022-09-18T09:19:03.906Z,0.53
2022-09-18T09:22:02.999Z,2.60
2022-09-18T09:25:01.792Z,1.40
2022-09-18T09:27:50.497Z,0.80
2022-09-18T09:30:37.407Z,2.00
2022-09-18T09:33:37.366Z,1.50
2022-09-18T09:36:20.813Z,1.17
2022-09-18T09:38:48.416Z,0.80
2022-09-18T09:41:15.166Z,2.30
2022-09-18T09:43:47.371Z,1.30
2022-09-18T09:46:39.899Z,1.23
2022-09-18T09:49:33.308Z,1.70
2022-09-18T09:52:09.107Z,1.00
2022-09-18T09:54:36.614Z,1.63
2022-09-18T09:57:25.175Z,3.07
2022-09-18T10:00:13.184Z,1.17
2022-09-18T10:03:19.202Z,1.63
2022-09-18T10:05:59.786Z,2.50
2022-09-18T10:08:48.241Z,2.60
2022-09-18T10:11:16.508Z,3.67
2022-09-18T10:14:10.051Z,3.07
2022-09-18T10:16:42.002Z,3.23
2022-09-18T10:19:18.637Z,2.90
2022-09-18T10:21:50.208Z,4.47
2022-09-18T10:24:24.073Z,2.63
2022-09-18T10:26:59.782Z,3.77
2022-09-18T10:29:26.080Z,4.60
2022-09-18T10:31:59.392Z,6.23
2022-09-18T10:34:32.173Z,4.47
2022-09-18T10:36:59.959Z,2.93
2022-09-18T10:39:33.918Z,5.03
2022-09-18T10:42:16.047Z,5.27
2022-09-18T10:44:52.811Z,6.03
2022-09-18T10:47:29.417Z,7.27
2022-09-18T10:50:05.920Z,3.83
2022-09-18T10:52:47.887Z,6.03
2022-09-18T10:55:25.813Z,4.47
2022-09-18T10:57:56.650Z,6.63
2022-09-18T11:00:23.801Z,5.33
2022-09-18T11:02:58.256Z,7.87
2022-09-18T11:05:31.638Z,6.57
2022-09-18T11:08:03.993Z,5.67
2022-09-18T11:10:32.450Z,5.37
2022-09-18T11:13:01.626Z,4.63
2022-09-18T11:15:38.126Z,4.10
2022-09-18T11:18:12.680Z,6.80
2022-09-18T11:20:43.250Z,5.97
2022-09-18T11:23:34.647Z,6.33
2022-09-18T11:26:11.261Z,7.60
2022-09-18T11:28:39.109Z,7.03
2022-09-18T11:31:16.557Z,3.50
2022-09-18T11:33:50.411Z,4.40
2022-09-18T11:36:29.642Z,3.00
2022-09-18T11:38:59.236Z,3.90
2022-09-18T11:41:40.497Z,5.57
2022-09-18T11:44:21.979Z,6.23
2022-09-18T11:47:18.500Z,4.40
2022-09-18T11:49:45.258Z,5.93
2022-09-18T11:52:20.580Z,3.83
2022-09-18T11:55:09.435Z,6.67
2022-09-18T11:57:44.387Z,5.90
2022-09-18T12:00:20.678Z,4.17
2022-09-18T12:03:22.604Z,3.27
2022-09-18T12:05:54.681Z,2.70
2022-09-18T12:08:52.449Z,5.73
2022-09-18T12:11:48.048Z,6.70
2022-09-18T12:14:25.010Z,5.03
2022-09-18T12:17:30.914Z,4.60
2022-09-18T12:20:05.812Z,5.23
2022-09-18T12:22:42.506Z,6.27
2022-09-18T12:25:14.578Z,10.37
2022-09-18T12:28:55.013Z,5.20
2022-09-18T12:31:34.291Z,3.60
2022-09-18T12:34:08.154Z,5.20
2022-09-18T12:36:49.851Z,7.10
2022-09-18T12:39:41.654Z,8.50
2022-09-18T12:42:20.765Z,6.27
2022-09-18T12:45:27.084Z,3.80
2022-09-18T12:48:09.048Z,5.43
2022-09-18T12:51:00.407Z,5.00
2022-09-18T12:53:38.178Z,5.77
2022-09-18T12:56:13.508Z,5.27
2022-09-18T12:59:15.348Z,4.57
2022-09-18T13:01:54.021Z,3.57
2022-09-18T13:04:34.426Z,3.93
2022-09-18T13:07:06.111Z,5.17
2022-09-18T13:09:45.770Z,3.80
2022-09-18T13:12:21.302Z,2.70
2022-09-18T13:14:57.091Z,2.67
2022-09-18T13:17:31.101Z,3.10
2022-09-18T13:20:26.479Z,3.53
2022-09-18T13:22:54.126Z,3.43
2022-09-18T13:25:29.448Z,6.93
2022-09-18T13:27:58.348Z,3.33
2022-09-18T13:30:28.360Z,3.83
2022-09-18T13:32:56.657Z,3.03
2022-09-18T13:35:26.922Z,3.27
2022-09-18T13:38:16.409Z,3.90
2022-09-18T13:40:56.219Z,6.07
2022-09-18T13:43:28.995Z,5.03
2022-09-18T13:45:57.036Z,5.47
2022-09-18T13:48:33.809Z,6.33
2022-09-18T13:51:18.101Z,5.83
2022-09-18T13:53:44.567Z,3.87
2022-09-18T13:56:13.481Z,5.30
2022-09-18T13:59:18.091Z,5.87
2022-09-18T14:01:44.380Z,2.97
2022-09-18T14:04:38.450Z,4.07
2022-09-18T14:07:24.995Z,6.17
2022-09-18T14:10:01.836Z,4.03
2022-09-18T14:12:33.629Z,4.37
2022-09-18T14:15:18.744Z,3.87
2022-09-18T14:18:06.441Z,4.87
2022-09-18T14:20:33.542Z,8.37
2022-09-18T14:23:34.757Z,3.63
2022-09-18T14:26:06.692Z,4.87
2022-09-18T14:28:33.825Z,4.87
2022-09-18T14:31:21.665Z,4.00
2022-09-18T14:33:48.318Z,2.93
2022-09-18T14:36:14.983Z,3.00
2022-09-18T14:38:41.237Z,2.43
2022-09-18T14:41:21.094Z,4.33
2022-09-18T14:43:50.676Z,5.73
2022-09-18T14:46:22.723Z,3.40
2022-09-18T14:48:49.790Z,3.33
2022-09-18T14:51:28.710Z,3.07
2022-09-18T14:53:57.941Z,7.00
2022-09-18T14:56:31.571Z,4.63
2022-09-18T14:59:05.509Z,2.87
2022-09-18T15:01:33.613Z,5.23
2022-09-18T15:04:02.545Z,4.33
2022-09-18T15:06:38.488Z,3.67
2022-09-18T15:09:09.106Z,3.70
2022-09-18T15:11:52.541Z,4.00
2022-09-18T15:14:28.748Z,5.90
2022-09-18T15:16:57.480Z,5.23
2022-09-18T15:19:28.032Z,3.53
2022-09-18T15:21:56.340Z,5.40
2022-09-18T15:24:22.851Z,3.10
2022-09-18T15:26:56.438Z,6.27
2022-09-18T15:29:27.243Z,2.83
2022-09-18T15:31:54.732Z,6.07
2022-09-18T15:34:27.206Z,4.63
2022-09-18T15:37:00.992Z,1.73
2022-09-18T15:39:40.582Z,2.17
2022-09-18T15:42:18.559Z,2.43
2022-09-18T15:44:52.225Z,2.73
2022-09-18T15:47:42.098Z,2.33
2022-09-18T15:50:11.946Z,4.07
2022-09-18T15:53:02.372Z,6.00
2022-09-18T15:55:54.338Z,6.63
2022-09-18T15:58:49.673Z,2.73
2022-09-18T16:01:22.670Z,2.67
2022-09-18T16:04:19.896Z,2.13
2022-09-18T16:06:56.268Z,2.13
2022-09-18T16:09:33.481Z,2.63
2022-09-18T16:12:00.807Z,2.30
2022-09-18T16:14:44.945Z,1.23
2022-09-18T16:17:36.609Z,1.13
2022-09-18T16:20:24.005Z,2.10
2022-09-18T16:22:53.479Z,0.93
2022-09-18T16:25:23.415Z,1.23
2022-09-18T16:27:53.747Z,3.87
2022-09-18T16:30:20.155Z,2.07
2022-09-18T16:32:46.522Z,1.00
2022-09-18T16:35:14.797Z,1.90
2022-09-18T16:37:42.040Z,1.13
2022-09-18T16:40:16.858Z,3.10
2022-09-18T16:42:43.404Z,2.13
2022-09-18T16:45:10.905Z,2.70
2022-09-18T16:47:44.155Z,2.87
2022-09-18T16:50:11.389Z,3.07
2022-09-18T16:52:37.717Z,2.13
2022-09-18T16:55:05.009Z,3.33
2022-09-18T16:57:31.399Z,2.97
2022-09-18T17:00:00.856Z,1.67
2022-09-18T17:02:27.795Z,2.27
2022-09-18T17:04:54.182Z,2.00
2022-09-18T17:07:20.702Z,2.70
2022-09-18T17:09:47.150Z,1.67
2022-09-18T17:12:13.646Z,3.50
2022-09-18T17:14:41.035Z,3.30
2022-09-18T17:17:07.366Z,3.00
2022-09-18T17:19:33.969Z,1.50
2022-09-18T17:22:00.608Z,1.37
2022-09-18T17:24:27.315Z,2.27
2022-09-18T17:26:53.943Z,1.77
2022-09-18T17:29:20.681Z,1.93
2022-09-18T17:31:49.826Z,3.57
2022-09-18T17:34:18.139Z,3.37
2022-09-18T17:36:45.257Z,2.37
2022-09-18T17:39:12.266Z,1.10
2022-09-18T17:41:41.873Z,2.87
2022-09-18T17:44:08.627Z,2.53
2022-09-18T17:46:34.830Z,2.07
2022-09-18T17:49:01.186Z,2.20
2022-09-18T17:51:29.138Z,2.33
2022-09-18T17:53:58.981Z,2.17
2022-09-18T17:56:31.908Z,2.57
2022-09-18T17:59:01.732Z,2.97
2022-09-18T18:01:28.922Z,4.47
2022-09-18T18:03:56.550Z,4.60
2022-09-18T18:06:23.644Z,4.90
2022-09-18T18:08:51.184Z,3.13
2022-09-18T18:11:22.325Z,4.13
2022-09-18T18:13:50.172Z,1.93
2022-09-18T18:16:22.894Z,2.53
2022-09-18T18:18:52.331Z,2.83
2022-09-18T18:21:19.010Z,5.47
2022-09-18T18:23:46.142Z,5.53
2022-09-18T18:26:13.179Z,5.23
2022-09-18T18:28:40.995Z,3.97
2022-09-18T18:31:13.898Z,6.43
2022-09-18T18:33:43.304Z,10.53
2022-09-18T18:36:19.298Z,7.90
2022-09-18T18:38:50.979Z,7.87
2022-09-18T18:41:20.518Z,6.10
2022-09-18T18:43:53.310Z,4.17
2022-09-18T18:46:19.857Z,6.70
2022-09-18T18:48:47.952Z,2.67
2022-09-18T18:51:15.801Z,3.00
2022-09-18T18:53:43.506Z,4.73
2022-09-18T18:56:13.450Z,4.70
2022-09-18T18:58:41.080Z,2.30
2022-09-18T19:01:14.217Z,3.37
2022-09-18T19:03:43.534Z,3.37
2022-09-18T19:06:11.005Z,2.73
2022-09-18T19:08:37.873Z,3.93
2022-09-18T19:11:06.127Z,3.83
2022-09-18T19:13:40.558Z,4.60
2022-09-18T19:16:07.424Z,3.43
2022-09-18T19:18:33.893Z,3.40
2022-09-18T19:21:00.142Z,3.60
2022-09-18T19:23:26.761Z,3.63
2022-09-18T19:25:59.209Z,3.83
2022-09-18T19:28:30.191Z,3.17
2022-09-18T19:31:04.234Z,5.23
2022-09-18T19:33:32.395Z,3.60
2022-09-18T19:36:04.369Z,3.33
2022-09-18T19:38:32.472Z,4.00
2022-09-18T19:41:03.818Z,4.40
2022-09-18T19:43:34.367Z,2.33
2022-09-18T19:46:01.600Z,4.80
2022-09-18T19:48:28.518Z,2.50
2022-09-18T19:50:55.324Z,3.90
2022-09-18T19:53:22.216Z,5.70
2022-09-18T19:55:49.161Z,3.23
2022-09-18T19:58:16.599Z,4.67
2022-09-18T20:00:44.417Z,1.97
2022-09-18T20:03:11.244Z,2.87
2022-09-18T20:05:39.727Z,5.10
2022-09-18T20:08:06.930Z,3.10
2022-09-18T20:10:38.173Z,3.73
2022-09-18T20:13:05.808Z,2.90
2022-09-18T20:15:32.339Z,1.53
2022-09-18T20:17:58.911Z,2.93
2022-09-18T20:20:25.810Z,3.27
2022-09-18T20:22:54.144Z,2.33
2022-09-18T20:25:20.882Z,2.10
2022-09-18T20:27:50.522Z,3.47
2022-09-18T20:30:17.221Z,4.53
2022-09-18T20:32:43.601Z,2.37
2022-09-18T20:35:10.039Z,2.13
2022-09-18T20:37:36.368Z,3.77
2022-09-18T20:40:05.113Z,2.83
2022-09-18T20:42:32.807Z,3.10
2022-09-18T20:45:03.127Z,3.47
2022-09-18T20:47:34.464Z,1.70
2022-09-18T20:50:05.791Z,2.53
2022-09-18T20:52:42.295Z,2.70
2022-09-18T20:55:11.748Z,2.87
2022-09-18T20:57:39.243Z,2.33
2022-09-18T21:00:08.618Z,4.03
2022-09-18T21:02:35.692Z,2.53
2022-09-18T21:05:06.623Z,3.13
2022-09-18T21:07:32.853Z,4.30
2022-09-18T21:09:59.773Z,3.03
2022-09-18T21:12:36.802Z,3.13
2022-09-18T21:15:09.366Z,3.10
2022-09-18T21:17:37.372Z,3.03
2022-09-18T21:20:05.269Z,2.30
2022-09-18T21:22:32.603Z,4.33
2022-09-18T21:24:58.913Z,1.93
2022-09-18T21:27:25.789Z,1.77
2022-09-18T21:29:53.270Z,5.57
2022-09-18T21:32:20.099Z,2.53
2022-09-18T21:34:46.832Z,2.27
2022-09-18T21:37:13.166Z,4.30
2022-09-18T21:39:43.302Z,3.03
2022-09-18T21:42:09.759Z,2.97
2022-09-18T21:44:36.893Z,2.77
2022-09-18T21:47:06.390Z,4.03
2022-09-18T21:49:33.819Z,2.70
2022-09-18T21:52:04.046Z,3.53
2022-09-18T21:54:31.229Z,2.00
2022-09-18T21:56:57.934Z,3.57
2022-09-18T21:59:26.679Z,2.53
2022-09-18T22:01:53.974Z,4.80
2022-09-18T22:04:26.401Z,2.57
2022-09-18T22:06:56.406Z,2.90
2022-09-18T22:09:28.432Z,1.80
2022-09-18T22:11:56.261Z,1.83
2022-09-18T22:14:29.116Z,2.83
2022-09-18T22:16:55.702Z,3.03
2022-09-18T22:19:21.841Z,1.97
2022-09-18T22:21:50.324Z,1.97
2022-09-18T22:24:20.913Z,1.37
2022-09-18T22:26:54.268Z,2.93
2022-09-18T22:29:26.971Z,3.83
2022-09-18T22:31:53.724Z,2.00
2022-09-18T22:34:23.351Z,2.73
2022-09-18T22:36:50.537Z,2.83
2022-09-18T22:39:19.025Z,4.07
2022-09-18T22:41:45.713Z,2.70
2022-09-18T22:44:13.439Z,3.00
2022-09-18T22:46:41.618Z,2.50
2022-09-18T22:49:08.323Z,1.27
2022-09-18T22:51:34.895Z,4.73
2022-09-18T22:54:06.837Z,1.70
2022-09-18T22:56:43.779Z,2.03
2022-09-18T22:59:11.827Z,1.43
2022-09-18T23:01:46.928Z,2.03
2022-09-18T23:04:13.577Z,2.03
2022-09-18T23:06:39.746Z,2.23
2022-09-18T23:09:06.814Z,2.03
2022-09-18T23:11:33.952Z,1.90
2022-09-18T23:14:03.760Z,1.53
2022-09-18T23:16:31.761Z,2.17
2022-09-18T23:19:00.217Z,2.40
2022-09-18T23:21:30.814Z,2.07
2022-09-18T23:23:58.736Z,3.57
2022-09-18T23:26:31.070Z,2.90
2022-09-18T23:28:58.680Z,3.40
2022-09-18T23:31:28.561Z,2.70
2022-09-18T23:34:03.425Z,3.97
2022-09-18T23:36:32.547Z,3.40
2022-09-18T23:39:01.767Z,2.30
2022-09-18T23:41:35.578Z,1.23
2022-09-18T23:44:02.874Z,1.60
2022-09-18T23:46:29.160Z,1.53
2022-09-18T23:48:55.287Z,1.83
2022-09-18T23:51:27.413Z,3.50
2022-09-18T23:53:59.196Z,4.03
2022-09-18T23:56:28.362Z,2.93
2022-09-18T23:59:00.448Z,5.13
